Time;durP1;ratioP1;P1;durP2;ratioP2;P2;SDS_P1;SDS_P2;PMS_P1;PMS_P2;Temp;Humidity;BMP_temperature;BMP_pressure;BME280_temperature;BME280_humidity;BME280_pressure;Samples;Min_cycle;Max_cycle;Signal;HPM_P1;HPM_P2
2021/07/17 00:02:23;;;;;;;11.95;10.65;;;25.80;72.20;;;;;;5031299;28;20112;-64
2021/07/17 00:04:49;;;;;;;12.05;10.77;;;25.70;72.20;;;;;;5031284;28;20519;-63
2021/07/17 00:07:15;;;;;;;12.02;10.73;;;25.70;72.10;;;;;;5030998;28;20057;-62
2021/07/17 00:09:40;;;;;;;13.07;11.77;;;25.70;72.40;;;;;;5031346;28;20030;-64
2021/07/17 00:12:06;;;;;;;13.93;12.43;;;25.70;72.70;;;;;;5029985;28;20037;-64
2021/07/17 00:14:32;;;;;;;13.70;12.30;;;25.70;73.20;;;;;;5030833;28;20159;-63
2021/07/17 00:16:57;;;;;;;12.70;11.40;;;25.70;73.40;;;;;;5031276;28;20457;-64
2021/07/17 00:19:23;;;;;;;13.40;12.00;;;25.60;73.50;;;;;;5031324;28;20602;-64
2021/07/17 00:21:49;;;;;;;14.20;12.70;;;25.60;73.80;;;;;;5030106;28;20064;-63
2021/07/17 00:24:14;;;;;;;13.07;11.52;;;25.60;74.10;;;;;;5030929;28;20026;-62
2021/07/17 00:26:40;;;;;;;13.38;11.98;;;25.60;74.10;;;;;;5031012;28;20104;-63
2021/07/17 00:29:06;;;;;;;14.68;12.93;;;25.50;74.00;;;;;;5031019;28;20128;-63
2021/07/17 00:31:31;;;;;;;12.43;11.13;;;25.50;74.10;;;;;;5031089;28;20059;-63
2021/07/17 00:33:57;;;;;;;12.73;11.35;;;25.50;73.80;;;;;;5031004;28;20038;-63
2021/07/17 00:36:23;;;;;;;15.38;12.13;;;25.50;73.80;;;;;;5031157;28;20388;-64
2021/07/17 00:38:49;;;;;;;13.00;11.70;;;25.50;74.00;;;;;;5034811;28;20018;-64
2021/07/17 00:41:15;;;;;;;13.05;11.65;;;25.40;73.90;;;;;;5034773;28;20022;-63
2021/07/17 00:43:40;;;;;;;11.80;10.43;;;25.40;73.90;;;;;;5033489;28;20033;-64
2021/07/17 00:46:06;;;;;;;11.73;10.52;;;25.40;73.80;;;;;;5034656;28;20025;-63
2021/07/17 00:48:31;;;;;;;11.68;10.05;;;25.40;73.80;;;;;;5034582;28;20029;-63
2021/07/17 00:50:57;;;;;;;12.02;10.70;;;25.40;73.80;;;;;;5034513;28;20038;-63
2021/07/17 00:53:23;;;;;;;11.57;10.13;;;25.40;73.80;;;;;;5034409;28;20358;-64
2021/07/17 00:55:49;;;;;;;11.30;10.10;;;25.30;73.70;;;;;;5034549;28;20105;-64
2021/07/17 00:58:19;;;;;;;11.85;10.52;;;25.30;73.80;;;;;;5033521;28;20025;-64
2021/07/17 01:00:44;;;;;;;11.98;9.77;;;25.30;73.80;;;;;;5032998;28;20025;-63
2021/07/17 01:03:10;;;;;;;12.13;9.75;;;25.30;73.70;;;;;;5033220;28;20022;-64
2021/07/17 01:05:36;;;;;;;13.88;12.40;;;25.30;73.60;;;;;;5034484;28;20029;-62
2021/07/17 01:08:02;;;;;;;14.30;12.80;;;25.30;73.70;;;;;;5033075;28;20053;-63
2021/07/17 01:10:28;;;;;;;17.25;15.48;;;25.30;73.80;;;;;;5034179;28;20040;-64
2021/07/17 01:12:54;;;;;;;17.08;15.27;;;25.30;73.80;;;;;;5034168;28;20068;-63
2021/07/17 01:15:19;;;;;;;16.60;14.75;;;25.30;74.00;;;;;;5033898;28;20042;-63
2021/07/17 01:17:45;;;;;;;14.00;12.13;;;25.30;74.20;;;;;;5032833;28;20034;-62
2021/07/17 01:20:21;;;;;;;14.05;12.55;;;25.30;74.10;;;;;;5034028;28;20100;-62
2021/07/17 01:22:48;;;;;;;12.52;11.23;;;25.30;74.30;;;;;;5033883;28;20026;-63
2021/07/17 01:25:18;;;;;;;12.80;11.40;;;25.20;74.00;;;;;;5032951;28;20101;-63
2021/07/17 01:27:44;;;;;;;13.40;11.88;;;25.20;74.30;;;;;;5032631;28;20025;-63
2021/07/17 01:30:12;;;;;;;13.85;12.45;;;25.20;74.40;;;;;;5033873;28;20029;-63
2021/07/17 01:32:37;;;;;;;13.68;12.27;;;25.10;74.70;;;;;;5032372;28;20032;-63
2021/07/17 01:35:03;;;;;;;12.95;11.55;;;25.10;74.80;;;;;;5032657;28;20033;-62
2021/07/17 01:37:29;;;;;;;13.15;11.55;;;25.10;74.80;;;;;;5033527;28;20022;-62
2021/07/17 01:39:55;;;;;;;12.27;9.77;;;25.10;74.80;;;;;;5033814;28;20029;-63
2021/07/17 01:42:21;;;;;;;12.93;11.18;;;25.10;74.70;;;;;;5065550;28;20547;-62
2021/07/17 01:44:46;;;;;;;14.07;11.82;;;25.10;75.00;;;;;;5033940;28;20037;-64
2021/07/17 01:47:15;;;;;;;13.25;11.85;;;25.10;75.20;;;;;;5032234;28;20052;-63
2021/07/17 01:49:41;;;;;;;12.80;11.35;;;25.10;75.10;;;;;;5032597;28;20554;-63
2021/07/17 01:52:07;;;;;;;13.35;11.63;;;25.10;75.10;;;;;;5034033;28;20108;-63
2021/07/17 01:54:34;;;;;;;12.68;11.38;;;25.10;75.00;;;;;;5032065;28;20089;-62
2021/07/17 01:57:01;;;;;;;11.23;10.02;;;25.10;75.00;;;;;;5032126;28;20021;-63
2021/07/17 01:59:26;;;;;;;12.38;10.48;;;25.10;74.80;;;;;;5033187;28;20053;-63
2021/07/17 02:01:52;;;;;;;12.95;10.60;;;25.10;74.80;;;;;;5033298;28;20056;-63
2021/07/17 02:04:18;;;;;;;13.05;11.65;;;25.10;74.80;;;;;;5033154;28;20029;-63
2021/07/17 02:06:43;;;;;;;12.02;10.57;;;25.00;75.10;;;;;;5032686;28;20477;-63
2021/07/17 02:09:09;;;;;;;13.48;12.07;;;25.00;75.20;;;;;;5031943;28;20082;-63
2021/07/17 02:11:34;;;;;;;14.55;13.02;;;25.00;75.40;;;;;;5033122;28;20123;-63
2021/07/17 02:14:00;;;;;;;13.10;11.73;;;25.10;75.70;;;;;;5031626;28;20029;-63
2021/07/17 02:16:25;;;;;;;13.93;12.43;;;25.00;75.40;;;;;;5031597;28;20037;-63
2021/07/17 02:18:51;;;;;;;13.73;11.88;;;25.00;75.70;;;;;;5031702;28;20017;-63
2021/07/17 02:21:17;;;;;;;14.77;13.15;;;25.00;75.60;;;;;;5031645;28;20394;-62
2021/07/17 02:23:43;;;;;;;14.25;12.75;;;25.00;75.70;;;;;;5032948;28;20029;-63
2021/07/17 02:26:08;;;;;;;12.90;11.50;;;25.00;75.70;;;;;;5032737;28;20025;-62
2021/07/17 02:28:35;;;;;;;12.77;11.40;;;25.00;75.70;;;;;;5032920;28;20028;-62
2021/07/17 02:31:00;;;;;;;13.23;11.73;;;25.00;75.60;;;;;;5032653;28;20484;-62
2021/07/17 02:33:26;;;;;;;12.95;11.52;;;25.00;75.70;;;;;;5032767;28;20061;-62
2021/07/17 02:35:52;;;;;;;13.45;12.05;;;25.00;75.60;;;;;;5032612;28;20030;-62
2021/07/17 02:38:17;;;;;;;12.45;11.15;;;25.00;75.60;;;;;;5032421;28;20067;-62
2021/07/17 02:40:43;;;;;;;13.75;12.30;;;25.00;75.60;;;;;;5032401;28;20445;-62
2021/07/17 02:43:09;;;;;;;14.43;12.88;;;25.00;75.60;;;;;;5032352;28;20075;-62
2021/07/17 02:45:34;;;;;;;15.73;13.05;;;25.00;75.80;;;;;;5032277;28;20120;-63
2021/07/17 02:48:00;;;;;;;14.50;13.00;;;25.00;76.10;;;;;;5032310;28;20052;-62
2021/07/17 02:50:26;;;;;;;17.13;14.65;;;25.00;76.30;;;;;;5032003;28;20037;-62
2021/07/17 02:52:51;;;;;;;16.17;13.40;;;25.00;76.50;;;;;;5032310;28;20544;-64
2021/07/17 02:55:17;;;;;;;15.68;14.07;;;25.00;76.50;;;;;;5031003;28;20033;-63
2021/07/17 02:57:42;;;;;;;15.02;13.50;;;25.00;76.60;;;;;;5030757;28;20461;-64
2021/07/17 03:00:10;;;;;;;14.48;12.70;;;25.00;76.70;;;;;;5031605;28;20026;-62
2021/07/17 03:02:35;;;;;;;14.57;12.98;;;25.00;76.50;;;;;;5031950;28;20017;-63
2021/07/17 03:05:01;;;;;;;15.80;14.13;;;25.00;76.50;;;;;;5030674;28;20083;-62
2021/07/17 03:07:27;;;;;;;16.10;14.50;;;25.00;76.70;;;;;;5031626;28;20447;-63
2021/07/17 03:09:52;;;;;;;18.25;14.55;;;25.00;76.90;;;;;;5032016;28;20371;-64
2021/07/17 03:12:18;;;;;;;17.38;13.95;;;25.10;76.90;;;;;;5031935;28;20033;-62
2021/07/17 03:14:43;;;;;;;13.68;12.27;;;25.10;76.60;;;;;;5032251;28;20042;-64
2021/07/17 03:17:09;;;;;;;14.90;13.30;;;25.10;76.40;;;;;;5031580;28;20071;-62
2021/07/17 03:19:35;;;;;;;14.13;12.63;;;25.10;76.20;;;;;;5030239;28;20100;-62
2021/07/17 03:22:00;;;;;;;13.63;12.23;;;25.20;76.00;;;;;;5031537;28;20056;-62
2021/07/17 03:24:26;;;;;;;13.88;12.38;;;25.20;75.70;;;;;;5030372;28;20030;-63
2021/07/17 03:26:52;;;;;;;14.75;13.15;;;25.30;75.50;;;;;;5031277;28;20047;-63
2021/07/17 03:29:17;;;;;;;15.07;13.30;;;25.30;75.40;;;;;;5031260;28;20029;-63
2021/07/17 03:31:43;;;;;;;14.90;12.70;;;25.30;75.30;;;;;;5031438;28;20025;-64
2021/07/17 03:34:09;;;;;;;14.35;12.65;;;25.30;75.20;;;;;;5031387;28;20108;-63
2021/07/17 03:36:34;;;;;;;13.73;12.10;;;25.30;75.10;;;;;;5031178;28;20610;-63
2021/07/17 03:39:00;;;;;;;15.50;13.90;;;25.30;75.10;;;;;;5031436;28;20028;-63
2021/07/17 03:41:26;;;;;;;14.23;12.73;;;25.40;75.00;;;;;;5031439;28;20127;-64
2021/07/17 03:43:51;;;;;;;14.60;13.00;;;25.40;74.90;;;;;;5030150;28;20021;-63
2021/07/17 03:46:17;;;;;;;14.65;13.07;;;25.50;74.80;;;;;;5031254;28;20030;-64
2021/07/17 03:48:42;;;;;;;14.20;12.60;;;25.50;74.60;;;;;;5031005;28;20029;-63
2021/07/17 03:51:08;;;;;;;13.60;11.93;;;25.60;74.40;;;;;;5030271;28;20362;-63
2021/07/17 03:53:34;;;;;;;14.38;12.80;;;25.60;74.20;;;;;;5031335;28;20033;-63
2021/07/17 03:55:59;;;;;;;15.55;13.82;;;25.60;74.20;;;;;;5030987;28;20017;-63
2021/07/17 03:58:25;;;;;;;14.13;12.63;;;25.70;74.30;;;;;;5030909;28;20025;-63
2021/07/17 04:00:51;;;;;;;15.05;12.23;;;25.70;74.20;;;;;;5029844;28;20049;-63
2021/07/17 04:03:16;;;;;;;14.52;12.93;;;25.70;74.00;;;;;;5031076;28;20087;-63
2021/07/17 04:05:43;;;;;;;15.10;13.50;;;25.70;74.00;;;;;;5029670;28;20026;-63
2021/07/17 04:08:09;;;;;;;17.63;13.90;;;25.80;74.20;;;;;;5030904;28;20400;-63
2021/07/17 04:10:34;;;;;;;15.55;13.50;;;25.80;74.30;;;;;;5030750;28;20035;-63
2021/07/17 04:13:03;;;;;;;16.42;14.73;;;25.80;74.30;;;;;;5032702;28;20065;-63
2021/07/17 04:15:29;;;;;;;18.80;16.90;;;25.80;74.60;;;;;;5034751;28;20361;-63
2021/07/17 04:17:54;;;;;;;18.25;16.35;;;25.80;75.00;;;;;;5034973;28;20037;-63
2021/07/17 04:20:20;;;;;;;16.92;15.15;;;25.80;75.30;;;;;;5034861;28;20422;-63
2021/07/17 04:22:46;;;;;;;16.83;15.13;;;25.80;75.40;;;;;;5033730;28;20079;-63
2021/07/17 04:25:11;;;;;;;17.27;14.43;;;25.80;75.60;;;;;;5034874;28;20472;-63
2021/07/17 04:27:37;;;;;;;15.73;13.90;;;25.90;75.50;;;;;;5034691;28;20032;-63
2021/07/17 04:30:03;;;;;;;15.43;13.80;;;25.90;75.50;;;;;;5034030;28;20380;-63
2021/07/17 04:32:29;;;;;;;15.75;13.90;;;25.90;75.40;;;;;;5034153;28;20033;-63
2021/07/17 04:34:55;;;;;;;14.95;13.35;;;25.90;75.30;;;;;;5034534;28;20048;-63
2021/07/17 04:37:20;;;;;;;16.95;15.25;;;26.00;75.20;;;;;;5034051;28;20026;-63
2021/07/17 04:39:49;;;;;;;19.55;15.13;;;26.00;75.20;;;;;;5034250;28;20064;-63
2021/07/17 04:42:15;;;;;;;14.30;12.80;;;26.10;75.00;;;;;;5034147;28;20021;-64
2021/07/17 04:44:41;;;;;;;14.25;12.75;;;26.10;74.80;;;;;;5016876;28;20036;-63
2021/07/17 04:47:07;;;;;;;14.00;12.40;;;26.20;74.80;;;;;;5033322;28;20030;-63
2021/07/17 04:49:32;;;;;;;14.95;13.38;;;26.20;74.60;;;;;;5034634;28;20045;-64
2021/07/17 04:51:58;;;;;;;14.65;13.05;;;26.30;74.30;;;;;;5033078;28;20469;-64
2021/07/17 04:54:24;;;;;;;13.05;11.65;;;26.40;73.80;;;;;;5034240;28;20031;-64
2021/07/17 04:56:49;;;;;;;16.45;13.50;;;26.40;73.50;;;;;;5033339;28;20021;-64
2021/07/17 04:59:15;;;;;;;13.40;11.68;;;26.40;73.10;;;;;;5033434;28;20071;-64
2021/07/17 05:01:40;;;;;;;13.70;12.30;;;26.50;72.90;;;;;;5033216;28;20424;-64
2021/07/17 05:04:06;;;;;;;13.40;12.00;;;26.60;72.50;;;;;;5032932;28;20069;-64
2021/07/17 05:06:32;;;;;;;13.52;12.10;;;26.60;72.20;;;;;;5033866;28;20044;-64
2021/07/17 05:08:57;;;;;;;13.63;12.18;;;26.60;72.00;;;;;;5032699;28;20384;-63
2021/07/17 05:11:23;;;;;;;11.70;10.50;;;26.70;71.90;;;;;;5014368;28;20076;-63
2021/07/17 05:13:48;;;;;;;13.48;12.07;;;26.70;71.60;;;;;;5031675;28;20105;-63
2021/07/17 05:16:14;;;;;;;13.48;12.02;;;26.70;71.30;;;;;;5031923;28;20028;-64
2021/07/17 05:18:40;;;;;;;14.50;11.90;;;26.80;71.10;;;;;;5032601;28;20022;-63
2021/07/17 05:21:05;;;;;;;14.07;12.63;;;26.80;71.10;;;;;;5033104;28;20496;-64
2021/07/17 05:23:31;;;;;;;14.13;12.35;;;26.80;71.00;;;;;;5032431;28;20373;-64
2021/07/17 05:25:56;;;;;;;13.82;12.43;;;26.80;70.70;;;;;;5030471;28;20021;-63
2021/07/17 05:28:22;;;;;;;15.38;13.15;;;26.90;70.60;;;;;;5030538;28;20025;-63
2021/07/17 05:30:49;;;;;;;14.13;12.63;;;26.90;70.40;;;;;;5032213;28;20053;-64
2021/07/17 05:33:14;;;;;;;13.68;11.90;;;26.90;70.30;;;;;;5031880;28;20030;-64
2021/07/17 05:35:40;;;;;;;13.60;11.82;;;26.90;70.10;;;;;;5032363;28;20032;-63
2021/07/17 05:38:06;;;;;;;12.40;11.18;;;27.00;70.10;;;;;;5030564;28;20078;-63
2021/07/17 05:40:32;;;;;;;12.65;11.35;;;27.10;69.90;;;;;;5031509;28;20017;-64
2021/07/17 05:42:58;;;;;;;15.48;13.02;;;27.20;69.70;;;;;;5030190;28;20032;-63
2021/07/17 05:45:23;;;;;;;14.80;12.85;;;27.30;69.60;;;;;;5031280;28;20021;-65
2021/07/17 05:47:49;;;;;;;14.88;13.38;;;27.30;69.50;;;;;;5031493;28;20147;-64
2021/07/17 05:50:18;;;;;;;15.43;13.45;;;27.30;69.30;;;;;;5031633;28;20116;-63
2021/07/17 05:52:43;;;;;;;15.70;14.10;;;27.40;69.00;;;;;;5031404;28;20036;-63
2021/07/17 05:55:09;;;;;;;13.65;11.82;;;27.40;68.80;;;;;;5029963;28;20029;-63
2021/07/17 05:57:35;;;;;;;12.38;11.07;;;27.50;68.80;;;;;;5030478;28;20566;-63
2021/07/17 06:00:01;;;;;;;12.73;11.18;;;27.60;68.80;;;;;;5031283;28;20422;-63
2021/07/17 06:02:26;;;;;;;14.40;12.90;;;27.60;68.70;;;;;;5031310;28;20063;-63
2021/07/17 06:04:53;;;;;;;14.70;13.23;;;27.70;68.40;;;;;;5031063;28;20373;-63
2021/07/17 06:07:19;;;;;;;14.30;12.82;;;27.80;68.10;;;;;;4985940;28;1274762;-63
2021/07/17 06:09:45;;;;;;;13.63;12.13;;;27.80;68.00;;;;;;5032414;28;20037;-64
2021/07/17 06:12:11;;;;;;;13.38;11.98;;;27.80;68.10;;;;;;5033233;28;20107;-65
2021/07/17 06:14:37;;;;;;;13.70;12.30;;;27.90;67.90;;;;;;5032055;28;20036;-64
2021/07/17 06:17:03;;;;;;;13.23;11.85;;;27.90;67.60;;;;;;5031952;28;20022;-64
2021/07/17 06:19:28;;;;;;;14.85;13.20;;;28.00;67.40;;;;;;5032325;28;20350;-64
2021/07/17 06:21:54;;;;;;;14.93;13.20;;;28.00;67.30;;;;;;5014069;28;20020;-64
2021/07/17 06:24:20;;;;;;;14.07;12.57;;;28.10;67.20;;;;;;5031938;28;20029;-64
2021/07/17 06:26:45;;;;;;;15.55;13.93;;;28.10;67.30;;;;;;5031526;28;20036;-64
2021/07/17 06:29:11;;;;;;;15.05;13.55;;;28.20;67.20;;;;;;5032020;28;20096;-65
2021/07/17 06:31:36;;;;;;;14.23;12.82;;;28.40;66.90;;;;;;5032464;28;20108;-63
2021/07/17 06:34:04;;;;;;;14.25;12.75;;;28.40;66.80;;;;;;5030245;28;20172;-63
2021/07/17 06:36:30;;;;;;;13.98;12.43;;;28.50;66.70;;;;;;5031627;28;20667;-64
2021/07/17 06:38:55;;;;;;;13.50;11.90;;;28.70;66.40;;;;;;5031732;28;20126;-64
2021/07/17 06:41:22;;;;;;;13.75;12.23;;;28.80;66.20;;;;;;5031688;28;20024;-64
2021/07/17 06:43:47;;;;;;;14.93;13.25;;;29.00;65.80;;;;;;5032237;28;20062;-64
2021/07/17 06:46:13;;;;;;;14.15;12.75;;;29.10;64.90;;;;;;5031514;28;20025;-64
2021/07/17 06:48:38;;;;;;;14.73;13.23;;;29.20;64.80;;;;;;5032113;28;20388;-63
2021/07/17 06:51:04;;;;;;;14.02;12.55;;;29.30;64.50;;;;;;5031023;28;20465;-64
2021/07/17 06:53:30;;;;;;;13.07;11.63;;;29.40;64.40;;;;;;5031215;28;20021;-63
2021/07/17 06:55:55;;;;;;;14.75;13.25;;;29.50;64.40;;;;;;5032099;28;20041;-64
2021/07/17 06:58:21;;;;;;;14.23;12.70;;;29.60;63.70;;;;;;5032433;28;20472;-64
2021/07/17 07:00:46;;;;;;;12.93;11.63;;;29.60;63.60;;;;;;5031286;28;20029;-64
2021/07/17 07:03:12;;;;;;;14.63;13.23;;;29.60;63.60;;;;;;5031104;28;20389;-64
2021/07/17 07:05:38;;;;;;;14.57;13.10;;;29.70;63.20;;;;;;5031840;28;20075;-64
2021/07/17 07:08:03;;;;;;;14.93;13.43;;;29.80;63.30;;;;;;5030969;28;20068;-64
2021/07/17 07:10:29;;;;;;;14.70;13.30;;;29.80;62.60;;;;;;5031805;28;20087;-64
2021/07/17 07:12:55;;;;;;;12.60;11.30;;;29.80;62.60;;;;;;5031942;28;20497;-65
2021/07/17 07:15:21;;;;;;;12.82;11.52;;;29.90;62.90;;;;;;5030562;28;20030;-66
2021/07/17 07:17:47;;;;;;;14.15;12.75;;;30.00;62.90;;;;;;5030878;28;20048;-64
2021/07/17 07:20:13;;;;;;;12.93;11.60;;;30.10;62.60;;;;;;5031588;28;20400;-65
2021/07/17 07:22:39;;;;;;;11.00;9.88;;;30.10;62.40;;;;;;5031040;28;20037;-64
2021/07/17 07:25:05;;;;;;;13.55;12.15;;;30.20;62.40;;;;;;5029819;28;20022;-67
2021/07/17 07:27:31;;;;;;;12.85;11.55;;;30.40;61.50;;;;;;5031736;28;20029;-64
2021/07/17 07:29:56;;;;;;;13.52;12.23;;;30.40;61.00;;;;;;5030191;28;20143;-64
2021/07/17 07:32:22;;;;;;;13.50;12.20;;;30.50;61.00;;;;;;5031064;28;20096;-63
2021/07/17 07:34:48;;;;;;;13.25;11.85;;;30.60;60.60;;;;;;5030757;28;20029;-63
2021/07/17 07:37:13;;;;;;;12.80;10.80;;;30.60;60.60;;;;;;5030233;28;20404;-64
2021/07/17 07:39:39;;;;;;;13.85;12.38;;;30.60;60.50;;;;;;5031513;28;20025;-63
2021/07/17 07:42:05;;;;;;;12.32;11.13;;;30.80;60.40;;;;;;5030947;28;20358;-64
2021/07/17 07:44:31;;;;;;;12.45;11.15;;;30.90;60.00;;;;;;5030882;28;20017;-64
2021/07/17 07:46:57;;;;;;;13.52;12.02;;;30.90;59.90;;;;;;5030451;28;20017;-64
2021/07/17 07:49:22;;;;;;;11.80;10.60;;;31.00;59.50;;;;;;5031159;28;20040;-65
2021/07/17 07:51:48;;;;;;;13.50;12.10;;;31.10;59.60;;;;;;5031394;28;20025;-64
2021/07/17 07:54:14;;;;;;;12.50;11.20;;;31.20;58.90;;;;;;5031157;28;20211;-64
2021/07/17 07:56:39;;;;;;;12.85;11.65;;;31.30;58.70;;;;;;5031081;28;20025;-64
2021/07/17 07:59:05;;;;;;;14.20;12.80;;;31.30;58.60;;;;;;5029645;28;20029;-64
2021/07/17 08:01:30;;;;;;;14.32;12.02;;;31.50;58.60;;;;;;5029266;28;20033;-64
2021/07/17 08:03:56;;;;;;;12.88;11.55;;;31.50;58.30;;;;;;5031171;28;20026;-64
2021/07/17 08:06:22;;;;;;;13.10;11.38;;;31.70;58.00;;;;;;5030213;28;20476;-63
2021/07/17 08:08:47;;;;;;;13.05;11.65;;;31.90;58.10;;;;;;5030442;28;20025;-63
2021/07/17 08:11:13;;;;;;;11.95;10.75;;;32.10;57.60;;;;;;5030913;28;20048;-64
2021/07/17 08:13:39;;;;;;;11.63;10.43;;;32.20;57.20;;;;;;5029382;28;20033;-64
2021/07/17 08:16:04;;;;;;;12.00;10.80;;;32.40;56.80;;;;;;5030742;28;20025;-64
2021/07/17 08:18:30;;;;;;;11.60;10.40;;;32.70;56.20;;;;;;5029602;28;20427;-64
2021/07/17 08:20:56;;;;;;;11.68;10.45;;;32.90;55.60;;;;;;5030740;28;20025;-64
2021/07/17 08:23:22;;;;;;;11.98;10.75;;;33.10;55.40;;;;;;5030208;28;20022;-64
2021/07/17 08:25:47;;;;;;;10.60;9.50;;;33.30;54.80;;;;;;5030250;28;20026;-64
2021/07/17 08:28:14;;;;;;;10.43;9.43;;;33.50;54.60;;;;;;5030175;28;20427;-64
2021/07/17 08:30:39;;;;;;;10.38;9.38;;;33.60;54.20;;;;;;5030650;28;20029;-64
2021/07/17 08:33:05;;;;;;;10.85;9.77;;;33.80;52.70;;;;;;5028844;28;20480;-64
2021/07/17 08:35:31;;;;;;;10.75;9.00;;;34.00;52.60;;;;;;5030787;28;20095;-64
2021/07/17 08:37:57;;;;;;;10.85;9.75;;;34.10;53.50;;;;;;5030946;28;20026;-64
2021/07/17 08:40:22;;;;;;;10.23;9.23;;;34.40;53.00;;;;;;5030896;28;20428;-64
2021/07/17 08:42:50;;;;;;;10.88;9.23;;;34.70;52.50;;;;;;5030136;28;20021;-64
2021/07/17 08:45:16;;;;;;;11.75;9.38;;;34.90;51.40;;;;;;5028742;28;20022;-63
2021/07/17 08:47:43;;;;;;;10.20;9.20;;;35.10;50.90;;;;;;5029762;28;20124;-64
2021/07/17 08:50:15;;;;;;;9.70;8.02;;;35.30;50.70;;;;;;5032240;28;20075;-63
2021/07/17 08:52:40;;;;;;;8.85;7.90;;;35.50;50.90;;;;;;5032442;28;20026;-63
2021/07/17 08:55:08;;;;;;;8.90;8.00;;;35.80;51.00;;;;;;5030011;28;20033;-63
2021/07/17 08:57:38;;;;;;;8.70;7.80;;;36.30;50.40;;;;;;5011693;28;20152;-63
2021/07/17 09:00:09;;;;;;;9.93;9.03;;;36.60;50.10;;;;;;5034964;28;20056;-64
2021/07/17 09:02:42;;;;;;;8.52;7.68;;;37.00;48.90;;;;;;5018360;28;20361;-64
2021/07/17 09:05:08;;;;;;;8.95;8.05;;;37.40;48.30;;;;;;5023079;28;20088;-64
2021/07/17 09:07:35;;;;;;;8.70;7.80;;;37.70;47.40;;;;;;5014724;28;20134;-64
2021/07/17 09:10:12;;;;;;;8.60;7.70;;;37.90;47.00;;;;;;5019629;28;20030;-64
2021/07/17 09:12:37;;;;;;;9.55;7.65;;;38.20;46.80;;;;;;5028371;28;20083;-64
2021/07/17 09:15:03;;;;;;;8.02;7.22;;;38.40;46.30;;;;;;5015223;28;20503;-65
2021/07/17 09:17:31;;;;;;;8.95;7.22;;;38.70;46.60;;;;;;5030653;28;20029;-64
2021/07/17 09:19:58;;;;;;;7.78;6.97;;;38.90;46.10;;;;;;5045161;28;20475;-65
2021/07/17 09:22:39;;;;;;;7.90;7.10;;;39.20;45.70;;;;;;5039581;28;20030;-65
2021/07/17 09:25:10;;;;;;;8.05;7.13;;;39.50;44.60;;;;;;5032703;28;20362;-64
2021/07/17 09:27:35;;;;;;;8.25;7.30;;;39.60;44.80;;;;;;5034183;28;20366;-65
2021/07/17 09:30:01;;;;;;;8.43;7.60;;;39.90;44.40;;;;;;5032737;28;20037;-64
2021/07/17 09:32:26;;;;;;;8.15;7.35;;;40.10;43.60;;;;;;5033837;28;20036;-64
2021/07/17 09:34:52;;;;;;;8.75;7.40;;;40.10;43.00;;;;;;5033639;28;20204;-64
2021/07/17 09:37:22;;;;;;;7.50;6.57;;;40.10;43.50;;;;;;5032043;28;20026;-64
2021/07/17 09:39:49;;;;;;;7.73;6.93;;;40.00;42.40;;;;;;5022430;28;20021;-65
2021/07/17 09:42:16;;;;;;;7.80;6.88;;;40.00;43.10;;;;;;5032744;28;20032;-64
2021/07/17 09:44:45;;;;;;;7.57;6.80;;;40.00;43.20;;;;;;5032457;28;20465;-65
2021/07/17 09:47:21;;;;;;;7.80;7.10;;;40.10;43.50;;;;;;5031427;28;20432;-65
2021/07/17 09:49:47;;;;;;;8.30;7.13;;;40.50;42.50;;;;;;5033459;28;20037;-64
2021/07/17 09:52:13;;;;;;;8.23;7.07;;;40.70;42.40;;;;;;5033048;28;20026;-65
2021/07/17 09:54:40;;;;;;;7.15;6.45;;;41.00;42.00;;;;;;5032719;28;20041;-64
2021/07/17 09:57:06;;;;;;;7.50;6.70;;;41.30;41.70;;;;;;5032337;28;20026;-64
2021/07/17 09:59:31;;;;;;;7.45;6.57;;;41.50;40.90;;;;;;5033287;28;20021;-65
2021/07/17 10:01:57;;;;;;;7.45;6.65;;;41.60;40.50;;;;;;5032141;28;20380;-64
2021/07/17 10:04:23;;;;;;;6.72;6.03;;;41.60;40.30;;;;;;5031111;28;20107;-64
2021/07/17 10:07:01;;;;;;;7.55;6.10;;;41.70;40.60;;;;;;5032020;28;20053;-65
2021/07/17 10:09:34;;;;;;;7.75;6.95;;;41.90;40.40;;;;;;5030090;28;20470;-64
2021/07/17 10:12:05;;;;;;;7.40;6.60;;;42.00;39.40;;;;;;5031977;28;20112;-64
2021/07/17 10:14:33;;;;;;;7.30;6.60;;;41.80;39.50;;;;;;5032622;28;20033;-64
2021/07/17 10:17:04;;;;;;;7.10;6.40;;;41.90;39.70;;;;;;5030958;28;20432;-64
2021/07/17 10:19:30;;;;;;;6.90;5.90;;;42.10;39.90;;;;;;5031998;28;20358;-64
2021/07/17 10:21:56;;;;;;;6.85;6.13;;;42.30;39.80;;;;;;5065406;28;20033;-65
2021/07/17 10:24:22;;;;;;;7.80;6.40;;;42.50;39.80;;;;;;5032741;28;20022;-64
2021/07/17 10:26:48;;;;;;;7.10;6.40;;;42.70;39.10;;;;;;5031097;28;20021;-64
2021/07/17 10:29:14;;;;;;;7.20;6.50;;;42.70;39.10;;;;;;5031901;28;20393;-65
2021/07/17 10:31:40;;;;;;;6.93;6.22;;;42.90;38.80;;;;;;5031000;28;20026;-64
2021/07/17 10:34:05;;;;;;;8.07;6.63;;;43.10;39.00;;;;;;5031535;28;20103;-64
2021/07/17 10:36:33;;;;;;;7.00;6.30;;;43.20;38.70;;;;;;5032106;28;20025;-64
2021/07/17 10:38:59;;;;;;;7.97;5.88;;;43.30;38.70;;;;;;5031284;28;20101;-64
2021/07/17 10:41:25;;;;;;;6.85;6.10;;;43.40;38.50;;;;;;5031482;28;20080;-65
2021/07/17 10:43:52;;;;;;;6.68;5.90;;;43.60;38.00;;;;;;5030719;28;20424;-64
2021/07/17 10:46:36;;;;;;;6.65;5.95;;;43.80;38.00;;;;;;5013013;28;20073;-64
2021/07/17 10:49:06;;;;;;;7.78;6.38;;;43.90;37.60;;;;;;5031952;28;20763;-64
2021/07/17 10:51:34;;;;;;;7.65;6.32;;;44.00;37.10;;;;;;5031303;28;20029;-65
2021/07/17 10:54:03;;;;;;;7.47;6.15;;;44.10;36.80;;;;;;5030820;28;20033;-65
2021/07/17 10:56:28;;;;;;;7.10;6.00;;;44.20;36.80;;;;;;5032496;28;20026;-64
2021/07/17 10:58:56;;;;;;;7.65;6.38;;;44.40;36.80;;;;;;5031168;28;20492;-64
2021/07/17 11:01:22;;;;;;;6.35;5.68;;;44.60;36.70;;;;;;5031514;28;20013;-64
2021/07/17 11:03:48;;;;;;;7.93;7.05;;;44.60;36.80;;;;;;5031103;28;20021;-64
2021/07/17 11:06:27;;;;;;;7.68;6.88;;;44.80;36.50;;;;;;5030659;28;20041;-64
2021/07/17 11:08:53;;;;;;;6.73;6.03;;;45.00;36.30;;;;;;5030869;28;20045;-64
2021/07/17 11:11:28;;;;;;;7.40;6.40;;;44.90;36.30;;;;;;5030581;28;20083;-64
2021/07/17 11:13:54;;;;;;;7.80;6.82;;;45.10;36.30;;;;;;5031653;28;20022;-64
2021/07/17 11:16:46;;;;;;;7.78;6.72;;;45.00;36.20;;;;;;5031283;28;20852;-64
2021/07/17 11:19:27;;;;;;;7.80;6.28;;;44.80;35.70;;;;;;5030823;28;20091;-63
2021/07/17 11:22:07;;;;;;;8.18;6.20;;;44.30;35.90;;;;;;5029602;28;20469;-63
2021/07/17 11:24:33;;;;;;;6.75;5.40;;;43.40;36.20;;;;;;5031015;28;20032;-64
2021/07/17 11:27:25;;;;;;;5.95;5.15;;;42.60;36.60;;;;;;5030603;28;20022;-64
2021/07/17 11:29:50;;;;;;;8.07;5.53;;;41.90;36.90;;;;;;5027704;28;20179;-64
2021/07/17 11:32:17;;;;;;;7.20;5.78;;;41.50;37.50;;;;;;5031014;28;20113;-64
2021/07/17 11:34:44;;;;;;;7.65;6.32;;;41.30;38.10;;;;;;5030747;28;20034;-64
2021/07/17 11:37:20;;;;;;;6.90;6.00;;;41.50;38.60;;;;;;5029346;28;20052;-64
2021/07/17 11:39:48;;;;;;;6.40;5.80;;;41.80;38.70;;;;;;5029638;28;20025;-65
2021/07/17 11:42:14;;;;;;;8.02;6.35;;;42.50;38.70;;;;;;5029831;28;20417;-64
2021/07/17 11:44:45;;;;;;;7.40;6.22;;;43.30;37.80;;;;;;5031611;28;20025;-65
2021/07/17 11:47:18;;;;;;;7.30;6.30;;;43.50;37.50;;;;;;5030593;28;20099;-64
2021/07/17 11:49:54;;;;;;;7.32;6.40;;;43.70;36.70;;;;;;5030464;28;20033;-64
2021/07/17 11:52:28;;;;;;;6.43;5.72;;;43.50;36.90;;;;;;5029455;28;20032;-63
2021/07/17 11:54:56;;;;;;;6.38;5.68;;;43.20;36.90;;;;;;5030558;28;20025;-63
2021/07/17 11:57:26;;;;;;;6.78;6.00;;;42.90;37.10;;;;;;5029471;28;20017;-64
2021/07/17 12:00:16;;;;;;;7.70;6.28;;;42.80;36.90;;;;;;5031375;28;20026;-64
2021/07/17 12:02:42;;;;;;;6.28;5.68;;;42.60;37.00;;;;;;5030618;28;20084;-64
2021/07/17 12:05:08;;;;;;;7.82;7.03;;;42.60;37.40;;;;;;5030037;28;20546;-64
2021/07/17 12:07:36;;;;;;;9.60;8.70;;;42.90;37.50;;;;;;5031009;28;20497;-63
2021/07/17 12:10:07;;;;;;;8.10;7.30;;;43.60;37.60;;;;;;5030139;28;20025;-65
2021/07/17 12:12:43;;;;;;;7.90;7.10;;;44.20;37.20;;;;;;5031184;28;20380;-64
2021/07/17 12:15:09;;;;;;;6.40;5.80;;;44.80;36.70;;;;;;5030267;28;20483;-64
2021/07/17 12:17:36;;;;;;;6.68;5.90;;;45.30;36.40;;;;;;5030503;28;20115;-64
2021/07/17 12:20:13;;;;;;;6.57;5.70;;;45.80;36.00;;;;;;5031054;28;20517;-64
2021/07/17 12:22:47;;;;;;;6.43;5.78;;;46.10;35.20;;;;;;5029124;28;20068;-64
2021/07/17 12:25:17;;;;;;;6.45;5.78;;;46.30;34.80;;;;;;5029771;28;20025;-64
2021/07/17 12:27:52;;;;;;;6.00;5.32;;;46.40;35.10;;;;;;5030881;28;20087;-64
2021/07/17 12:30:18;;;;;;;6.22;4.70;;;46.80;35.20;;;;;;5029489;28;20071;-64
2021/07/17 12:32:44;;;;;;;5.80;4.70;;;46.80;35.10;;;;;;5030626;28;20037;-64